Time;durP1;ratioP1;P1;durP2;ratioP2;P2;SDS_P1;SDS_P2;PMS_P1;PMS_P2;Temp;Humidity;BMP_temperature;BMP_pressure;BME280_temperature;BME280_humidity;BME280_pressure;Samples;Min_cycle;Max_cycle;Signal;HPM_P1;HPM_P2
2021/06/02 00:01:55;;;;;;;2.60;1.47;;;16.00;18.30;;;;;;5076497;28;20463;-72
2021/06/02 00:04:24;;;;;;;4.90;1.40;;;16.00;30.00;;;;;;5076465;28;20538;-71
2021/06/02 00:06:51;;;;;;;1.83;1.63;;;16.00;62.80;;;;;;5076200;28;20497;-71
2021/06/02 00:09:18;;;;;;;1.63;1.53;;;15.90;71.50;;;;;;5075962;28;20454;-71
2021/06/02 00:11:45;;;;;;;3.07;1.23;;;15.90;71.60;;;;;;5076478;28;20469;-71
2021/06/02 00:14:11;;;;;;;2.30;1.40;;;15.90;71.10;;;;;;5076174;28;20458;-71
2021/06/02 00:16:39;;;;;;;2.53;1.47;;;15.90;83.60;;;;;;5076400;28;20474;-74
2021/06/02 00:19:08;;;;;;;1.80;1.50;;;15.90;81.10;;;;;;5076289;28;20523;-71
2021/06/02 00:21:35;;;;;;;1.80;1.40;;;15.90;99.90;;;;;;5075778;28;20472;-72
2021/06/02 00:24:01;;;;;;;3.07;1.70;;;15.90;99.90;;;;;;5076359;28;20458;-72
2021/06/02 00:26:32;;;;;;;2.63;1.77;;;15.80;99.90;;;;;;5076030;28;20512;-72
2021/06/02 00:28:59;;;;;;;2.83;1.67;;;15.80;99.90;;;;;;5075963;28;20474;-72
2021/06/02 00:31:26;;;;;;;1.70;1.33;;;15.80;99.90;;;;;;5076398;28;20458;-71
2021/06/02 00:33:54;;;;;;;4.53;2.30;;;15.80;99.90;;;;;;5075650;28;20540;-72
2021/06/02 00:36:26;;;;;;;2.07;1.87;;;15.80;99.90;;;;;;5075696;28;20481;-72
2021/06/02 00:38:53;;;;;;;3.00;2.20;;;15.80;99.90;;;;;;5074983;28;20522;-72
2021/06/02 00:41:20;;;;;;;3.13;2.20;;;15.80;99.90;;;;;;5075863;28;20992;-70
2021/06/02 00:43:47;;;;;;;2.93;1.87;;;15.70;99.90;;;;;;5075238;28;20458;-71
2021/06/02 00:46:14;;;;;;;2.83;2.00;;;15.70;99.90;;;;;;5075956;28;20453;-72
2021/06/02 00:48:42;;;;;;;3.07;2.10;;;15.70;99.90;;;;;;5075844;28;20783;-70
2021/06/02 00:51:12;;;;;;;2.33;2.13;;;15.60;99.90;;;;;;5075385;28;20462;-70
2021/06/02 00:53:43;;;;;;;3.87;2.33;;;15.50;99.90;;;;;;5075672;28;20458;-70
2021/06/02 00:56:10;;;;;;;3.77;2.37;;;15.50;99.90;;;;;;5076635;28;20466;-70
2021/06/02 00:58:40;;;;;;;2.90;1.90;;;15.50;99.90;;;;;;5075586;28;20458;-70
2021/06/02 01:01:07;;;;;;;3.17;2.03;;;15.50;99.90;;;;;;5075868;28;20443;-70
2021/06/02 01:03:36;;;;;;;4.73;2.63;;;15.50;99.90;;;;;;5075416;28;20454;-70
2021/06/02 01:06:03;;;;;;;4.00;2.20;;;15.40;99.90;;;;;;5076549;28;20450;-70
2021/06/02 01:08:35;;;;;;;3.50;2.37;;;15.40;99.90;;;;;;5075295;28;20496;-71
2021/06/02 01:11:06;;;;;;;6.47;2.40;;;15.40;1.00;;;;;;5075331;28;20457;-70
2021/06/02 01:13:35;;;;;;;3.50;2.10;;;15.40;1.00;;;;;;5073481;28;20561;-71
2021/06/02 01:16:01;;;;;;;3.40;2.20;;;15.40;1.00;;;;;;5075056;28;20481;-70
2021/06/02 01:18:30;;;;;;;3.23;2.10;;;15.40;99.90;;;;;;5075283;28;20454;-70
2021/06/02 01:21:01;;;;;;;2.10;1.90;;;15.40;99.90;;;;;;5074936;28;20458;-71
2021/06/02 01:23:29;;;;;;;3.77;2.07;;;15.40;99.90;;;;;;5073068;28;20787;-70
2021/06/02 01:25:56;;;;;;;3.70;2.33;;;15.30;99.90;;;;;;5074686;28;20454;-71
2021/06/02 01:28:22;;;;;;;1.97;1.77;;;15.30;99.90;;;;;;5075132;28;20462;-71
2021/06/02 01:30:51;;;;;;;3.60;2.07;;;15.20;99.90;;;;;;5075445;28;20915;-71
2021/06/02 01:33:40;;;;;;;3.00;2.40;;;15.20;99.90;;;;;;5075205;28;20550;-72
2021/06/02 01:36:09;;;;;;;3.77;2.40;;;15.20;99.90;;;;;;5074789;28;20463;-71
2021/06/02 01:39:13;;;;;;;2.23;1.90;;;15.10;99.90;;;;;;5074676;28;20919;-72
2021/06/02 01:41:57;;;;;;;5.30;2.60;;;15.10;99.90;;;;;;5057971;28;20465;-72
2021/06/02 01:44:53;;;;;;;2.67;2.43;;;15.10;1.00;;;;;;5055038;28;20508;-71
2021/06/02 01:48:04;;;;;;;3.60;2.53;;;15.00;1.00;;;;;;5054724;28;20463;-72
2021/06/02 01:51:04;;;;;;;2.87;2.50;;;15.00;1.00;;;;;;4995357;28;20536;-71
2021/06/02 01:54:06;;;;;;;3.50;2.40;;;14.90;1.00;;;;;;5058938;28;20770;-71
2021/06/02 01:57:00;;;;;;;3.93;2.73;;;14.90;1.00;;;;;;5058889;28;20462;-71
2021/06/02 02:00:12;;;;;;;4.90;2.23;;;14.90;1.00;;;;;;5058690;28;20458;-71
2021/06/02 02:03:14;;;;;;;4.53;2.63;;;14.80;1.00;;;;;;5028236;28;20848;-72
2021/06/02 02:06:26;;;;;;;3.10;2.40;;;14.70;1.00;;;;;;5058691;28;20446;-71
2021/06/02 02:09:05;;;;;;;2.90;2.43;;;14.70;1.00;;;;;;5058214;28;20462;-71
2021/06/02 02:11:36;;;;;;;5.20;3.03;;;14.70;99.90;;;;;;5058797;28;20450;-71
2021/06/02 02:14:22;;;;;;;3.97;2.47;;;14.60;99.90;;;;;;5058286;28;20458;-71
2021/06/02 02:17:01;;;;;;;4.70;2.23;;;14.60;99.90;;;;;;5056835;28;21016;-71
2021/06/02 02:20:01;;;;;;;4.63;2.50;;;14.60;99.90;;;;;;5057485;28;20442;-72
2021/06/02 02:22:38;;;;;;;3.30;2.93;;;14.60;1.00;;;;;;4995750;28;20434;-72
2021/06/02 02:25:10;;;;;;;3.53;2.80;;;14.60;1.00;;;;;;4995686;28;20454;-71
2021/06/02 02:27:48;;;;;;;5.63;2.80;;;14.60;1.00;;;;;;5029626;28;20446;-72
2021/06/02 02:30:23;;;;;;;6.57;3.30;;;14.50;1.00;;;;;;5056915;28;20721;-71
2021/06/02 02:33:03;;;;;;;5.07;3.47;;;14.50;1.00;;;;;;5056828;28;20511;-71
2021/06/02 02:35:46;;;;;;;4.53;2.93;;;14.40;1.00;;;;;;5057096;28;20931;-71
2021/06/02 02:38:30;;;;;;;4.93;3.30;;;14.40;99.90;;;;;;5056981;28;20443;-71
2021/06/02 02:41:10;;;;;;;4.97;3.67;;;14.30;99.90;;;;;;5055457;28;20462;-72
2021/06/02 02:43:48;;;;;;;5.67;3.70;;;14.30;1.00;;;;;;5056834;28;20453;-71
2021/06/02 02:46:22;;;;;;;4.80;4.00;;;14.30;1.00;;;;;;5056594;28;20436;-71
2021/06/02 02:49:00;;;;;;;5.90;3.77;;;14.20;99.90;;;;;;5056864;28;20526;-71
2021/06/02 02:51:36;;;;;;;7.53;4.67;;;14.20;99.90;;;;;;5056454;28;20444;-71
2021/06/02 02:54:07;;;;;;;6.00;3.90;;;14.10;99.90;;;;;;5056560;28;20526;-71
2021/06/02 02:56:43;;;;;;;6.27;4.50;;;14.10;1.00;;;;;;5056517;28;20845;-71
2021/06/02 02:59:18;;;;;;;5.20;4.23;;;14.00;1.00;;;;;;5056651;28;20745;-72
2021/06/02 03:01:51;;;;;;;7.13;4.73;;;14.00;99.90;;;;;;5055582;28;20443;-71
2021/06/02 03:04:22;;;;;;;8.00;4.83;;;13.90;1.00;;;;;;5056609;28;20516;-72
2021/06/02 03:06:56;;;;;;;6.70;4.47;;;13.90;99.90;;;;;;5056064;28;20919;-71
2021/06/02 03:09:30;;;;;;;5.87;4.73;;;13.90;99.90;;;;;;5056045;28;20488;-71
2021/06/02 03:12:26;;;;;;;6.97;4.40;;;13.80;99.90;;;;;;5056438;28;20447;-71
2021/06/02 03:14:59;;;;;;;9.30;5.00;;;13.80;1.00;;;;;;5043000;28;20858;-71
2021/06/02 03:17:34;;;;;;;10.17;5.23;;;13.80;1.00;;;;;;5056027;28;20451;-71
2021/06/02 03:20:10;;;;;;;6.53;5.27;;;13.80;1.00;;;;;;5056052;28;20949;-72
2021/06/02 03:23:08;;;;;;;10.50;5.43;;;13.80;1.00;;;;;;5055547;28;20454;-72
2021/06/02 03:25:39;;;;;;;6.60;4.97;;;13.80;1.00;;;;;;5055797;28;20439;-72
2021/06/02 03:28:30;;;;;;;8.70;4.80;;;13.80;1.00;;;;;;5056004;28;20439;-71
2021/06/02 03:31:02;;;;;;;6.93;5.00;;;13.70;99.90;;;;;;5055752;28;20780;-71
2021/06/02 03:33:46;;;;;;;9.67;5.40;;;13.70;99.90;;;;;;5056029;28;20815;-71
2021/06/02 03:36:24;;;;;;;7.20;6.27;;;13.60;99.90;;;;;;5055449;28;20478;-72
2021/06/02 03:39:03;;;;;;;10.60;6.63;;;13.60;99.90;;;;;;5055875;28;20439;-72
2021/06/02 03:41:40;;;;;;;10.63;5.20;;;13.60;99.90;;;;;;5055629;28;20466;-71
2021/06/02 03:44:22;;;;;;;8.03;5.93;;;13.60;99.90;;;;;;5055615;28;20829;-71
2021/06/02 03:46:59;;;;;;;8.43;5.57;;;13.50;1.00;;;;;;5055865;28;20450;-72
2021/06/02 03:49:34;;;;;;;13.30;5.77;;;13.50;1.00;;;;;;5055490;28;20443;-71
2021/06/02 03:52:05;;;;;;;9.60;6.43;;;13.50;1.00;;;;;;5055692;28;20439;-71
2021/06/02 03:54:35;;;;;;;6.80;5.70;;;13.50;1.00;;;;;;5055257;28;20993;-71
2021/06/02 03:57:18;;;;;;;9.13;6.47;;;13.60;1.00;;;;;;5055731;28;20472;-71
2021/06/02 03:59:58;;;;;;;10.20;5.97;;;13.60;1.00;;;;;;5055611;28;20462;-72
2021/06/02 04:02:34;;;;;;;8.47;5.43;;;13.60;1.00;;;;;;5054970;28;20475;-72
2021/06/02 04:05:15;;;;;;;8.93;6.60;;;13.60;1.00;;;;;;5055509;28;20439;-72
2021/06/02 04:07:52;;;;;;;7.40;6.10;;;13.60;1.00;;;;;;5055372;28;20466;-72
2021/06/02 04:10:33;;;;;;;9.93;6.60;;;13.60;1.00;;;;;;5055183;28;20446;-72
2021/06/02 04:13:04;;;;;;;10.77;5.50;;;13.60;1.00;;;;;;5054447;28;20922;-72
2021/06/02 04:15:37;;;;;;;6.23;5.63;;;13.60;1.00;;;;;;5054924;28;20475;-72
2021/06/02 04:18:06;;;;;;;8.20;6.17;;;13.60;1.00;;;;;;5055097;28;20506;-72
2021/06/02 04:20:33;;;;;;;8.07;5.87;;;13.70;1.00;;;;;;5055084;28;20517;-72
2021/06/02 04:23:03;;;;;;;9.20;6.70;;;13.70;1.00;;;;;;5054991;28;20463;-72
2021/06/02 04:25:30;;;;;;;8.83;6.77;;;13.70;1.00;;;;;;5055260;28;20455;-72
2021/06/02 04:27:57;;;;;;;9.13;6.17;;;13.70;1.00;;;;;;5054994;28;20455;-72
2021/06/02 04:30:25;;;;;;;7.37;5.97;;;13.80;1.00;;;;;;5054697;28;20533;-73
2021/06/02 04:32:59;;;;;;;6.80;6.10;;;13.80;1.00;;;;;;5054932;28;20580;-72
2021/06/02 04:35:26;;;;;;;8.73;5.23;;;13.90;1.00;;;;;;5055690;28;20447;-72
2021/06/02 04:37:54;;;;;;;14.20;6.10;;;14.00;99.90;;;;;;5055486;28;20926;-72
2021/06/02 04:40:20;;;;;;;7.50;6.30;;;14.00;99.90;;;;;;5055363;28;20462;-72
2021/06/02 04:42:47;;;;;;;6.83;5.90;;;14.10;99.90;;;;;;5056227;28;20459;-72
2021/06/02 04:45:19;;;;;;;6.73;5.40;;;14.10;99.90;;;;;;5055594;28;20460;-72
2021/06/02 04:47:46;;;;;;;7.40;5.93;;;14.20;99.90;;;;;;5055646;28;20447;-72
2021/06/02 04:50:23;;;;;;;8.33;6.40;;;14.30;99.90;;;;;;5055457;28;20455;-72
2021/06/02 04:53:39;;;;;;;14.20;6.53;;;14.40;1.00;;;;;;5055291;28;20910;-72
2021/06/02 04:56:36;;;;;;;11.83;6.90;;;14.50;1.00;;;;;;5055967;28;20503;-72
2021/06/02 04:59:24;;;;;;;11.77;6.00;;;14.50;99.90;;;;;;5055698;28;20439;-72
2021/06/02 05:02:11;;;;;;;9.90;5.70;;;14.60;99.90;;;;;;5055361;28;20443;-73
2021/06/02 05:05:03;;;;;;;6.63;5.70;;;14.60;99.90;;;;;;5055029;28;20892;-71
2021/06/02 05:08:08;;;;;;;8.03;5.57;;;14.70;1.00;;;;;;5055728;28;20493;-72
2021/06/02 05:11:28;;;;;;;5.80;4.83;;;14.70;1.00;;;;;;5055446;28;20447;-71
2021/06/02 05:14:36;;;;;;;9.10;5.20;;;14.70;1.00;;;;;;5055197;28;20458;-72
2021/06/02 05:17:35;;;;;;;6.10;4.77;;;14.80;1.00;;;;;;5007098;28;20482;-72
2021/06/02 05:22:04;;;;;;;10.03;6.20;;;14.90;24.90;;;;;;5055220;28;20447;-73
2021/06/02 05:24:13;;;;;;;9.27;6.10;;;15.00;99.90;;;;;;5054609;28;20546;-71
2021/06/02 05:27:15;;;;;;;9.60;5.67;;;15.10;45.80;;;;;;5054534;28;20443;-71
2021/06/02 05:30:17;;;;;;;6.83;5.53;;;15.20;99.90;;;;;;5054213;28;20981;-71
2021/06/02 05:33:18;;;;;;;7.90;5.60;;;15.30;99.90;;;;;;5054701;28;20957;-71
2021/06/02 05:36:27;;;;;;;8.63;5.40;;;15.40;1.00;;;;;;5054706;28;20484;-72
2021/06/02 05:39:12;;;;;;;6.87;4.60;;;15.50;1.00;;;;;;5054985;28;20455;-72
2021/06/02 05:41:55;;;;;;;7.47;5.50;;;15.50;1.00;;;;;;5054637;28;20534;-72
2021/06/02 05:45:08;;;;;;;8.33;5.50;;;15.60;1.00;;;;;;5052831;28;20468;-71
2021/06/02 05:48:12;;;;;;;8.57;5.10;;;15.70;99.90;;;;;;5035973;28;20459;-72
2021/06/02 05:50:53;;;;;;;6.43;5.60;;;15.70;99.90;;;;;;5036848;28;20926;-72
2021/06/02 05:53:56;;;;;;;7.77;5.37;;;15.80;99.90;;;;;;5054737;28;20436;-72
2021/06/02 05:57:07;;;;;;;10.37;5.27;;;15.80;99.90;;;;;;5054705;28;20474;-72
2021/06/02 06:00:08;;;;;;;7.37;5.10;;;15.90;99.90;;;;;;5029410;28;20460;-72
2021/06/02 06:03:04;;;;;;;8.60;5.33;;;16.00;99.90;;;;;;5055454;28;20497;-72
2021/06/02 06:05:46;;;;;;;6.87;4.47;;;16.10;33.00;;;;;;5054690;28;20821;-72
2021/06/02 06:09:05;;;;;;;4.93;4.43;;;16.10;1.00;;;;;;5054639;28;20455;-72
2021/06/02 06:12:17;;;;;;;6.43;4.60;;;16.20;1.00;;;;;;5054766;28;20447;-72
2021/06/02 06:15:25;;;;;;;7.57;4.80;;;16.30;1.00;;;;;;5054262;28;20439;-72
2021/06/02 06:18:07;;;;;;;6.37;4.73;;;16.30;1.00;;;;;;5054302;28;20435;-72
2021/06/02 06:20:52;;;;;;;7.10;5.10;;;16.30;99.90;;;;;;5054497;28;20435;-72
2021/06/02 06:23:43;;;;;;;6.53;4.90;;;16.40;99.90;;;;;;5054768;28;20443;-72
2021/06/02 06:26:15;;;;;;;8.30;5.47;;;16.40;1.00;;;;;;5054306;28;20537;-71
2021/06/02 06:28:45;;;;;;;6.17;5.10;;;16.40;99.90;;;;;;5054311;28;20450;-71
2021/06/02 06:31:18;;;;;;;7.20;5.50;;;16.40;1.00;;;;;;5054380;28;20470;-72
2021/06/02 06:33:46;;;;;;;5.03;4.53;;;16.40;1.00;;;;;;5053835;28;20515;-72
2021/06/02 06:36:17;;;;;;;8.87;5.27;;;16.50;1.00;;;;;;5054548;28;20482;-72
2021/06/02 06:38:56;;;;;;;6.83;4.90;;;16.60;1.00;;;;;;5057971;28;20447;-71
2021/06/02 06:41:26;;;;;;;7.90;4.97;;;16.60;99.90;;;;;;5057892;28;20453;-72
2021/06/02 06:43:53;;;;;;;5.37;4.87;;;16.70;99.90;;;;;;5058336;28;20467;-71
2021/06/02 06:46:23;;;;;;;6.30;4.90;;;16.70;1.00;;;;;;5058158;28;20802;-71
2021/06/02 06:48:52;;;;;;;10.30;5.30;;;16.70;99.90;;;;;;5057590;28;20470;-71
2021/06/02 06:51:21;;;;;;;5.30;4.80;;;16.80;99.90;;;;;;5057138;28;20495;-71
2021/06/02 06:53:49;;;;;;;5.23;4.23;;;16.80;99.90;;;;;;5057910;28;20482;-71
2021/06/02 06:56:17;;;;;;;6.03;4.30;;;16.80;99.90;;;;;;5057501;28;20486;-71
2021/06/02 06:58:45;;;;;;;5.53;4.20;;;16.80;99.90;;;;;;5057825;28;20471;-71
2021/06/02 07:01:12;;;;;;;3.97;3.63;;;16.80;99.90;;;;;;5057824;28;20459;-72
2021/06/02 07:03:42;;;;;;;5.77;4.40;;;16.80;99.90;;;;;;5057738;28;20529;-71
2021/06/02 07:06:10;;;;;;;5.60;4.27;;;16.80;99.90;;;;;;5058462;28;20462;-71
2021/06/02 07:08:38;;;;;;;7.17;5.20;;;16.90;1.00;;;;;;5057321;28;20463;-70
2021/06/02 07:11:04;;;;;;;6.50;5.10;;;16.90;1.00;;;;;;5057566;28;20459;-72
2021/06/02 07:13:31;;;;;;;4.90;4.07;;;16.90;1.00;;;;;;5057234;28;20467;-71
2021/06/02 07:16:01;;;;;;;6.03;4.17;;;16.90;1.00;;;;;;5057509;28;20479;-71
2021/06/02 07:18:28;;;;;;;8.93;4.50;;;16.90;1.00;;;;;;5057219;28;20459;-72
2021/06/02 07:21:00;;;;;;;7.70;4.80;;;16.90;1.00;;;;;;5057560;28;20485;-72
2021/06/02 07:23:27;;;;;;;6.80;4.63;;;17.00;1.00;;;;;;5057428;28;20452;-72
2021/06/02 07:25:53;;;;;;;4.90;4.40;;;17.00;1.00;;;;;;5057551;28;20463;-72
2021/06/02 07:28:30;;;;;;;5.70;4.70;;;17.10;1.00;;;;;;5057735;28;20466;-72
2021/06/02 07:30:56;;;;;;;6.03;4.10;;;17.10;1.00;;;;;;5057029;28;20549;-72
2021/06/02 07:33:22;;;;;;;8.33;4.50;;;17.20;1.00;;;;;;5056898;28;20788;-72
2021/06/02 07:35:49;;;;;;;5.00;4.30;;;17.30;1.00;;;;;;5056801;28;20467;-71
2021/06/02 07:38:16;;;;;;;5.13;3.80;;;17.50;1.00;;;;;;5057199;28;20466;-71
2021/06/02 07:40:43;;;;;;;6.77;5.30;;;17.60;1.00;;;;;;5057153;28;20467;-71
2021/06/02 07:43:09;;;;;;;4.90;4.50;;;17.70;99.90;;;;;;5057376;28;20455;-71
2021/06/02 07:45:35;;;;;;;4.60;4.20;;;17.90;99.90;;;;;;5056619;28;20520;-72
2021/06/02 07:48:02;;;;;;;6.17;4.30;;;18.00;99.90;;;;;;5057265;28;20524;-72
2021/06/02 07:50:28;;;;;;;5.20;4.37;;;18.10;99.90;;;;;;5056873;28;20456;-72
2021/06/02 07:52:54;;;;;;;5.43;4.20;;;18.30;28.90;;;;;;5056927;28;20455;-72
2021/06/02 07:55:22;;;;;;;6.40;4.00;;;18.40;1.00;;;;;;5056814;28;20520;-72
2021/06/02 07:57:49;;;;;;;5.90;5.20;;;18.50;1.00;;;;;;5056178;28;20483;-72
2021/06/02 08:00:16;;;;;;;6.10;4.10;;;18.60;1.00;;;;;;5056685;28;20463;-72
2021/06/02 08:02:42;;;;;;;10.03;5.10;;;18.70;1.00;;;;;;5056246;28;20466;-72
2021/06/02 08:05:10;;;;;;;7.67;4.20;;;18.80;1.00;;;;;;5056872;28;20790;-72
2021/06/02 08:07:36;;;;;;;5.00;4.50;;;18.90;1.00;;;;;;5056298;28;20580;-72
2021/06/02 08:10:03;;;;;;;7.73;4.40;;;19.00;1.00;;;;;;5056369;28;20954;-71
2021/06/02 08:12:31;;;;;;;5.13;3.93;;;19.10;1.00;;;;;;5056856;28;20455;-71
2021/06/02 08:14:57;;;;;;;5.97;4.50;;;19.20;1.00;;;;;;5057012;28;20459;-72
2021/06/02 08:17:23;;;;;;;5.97;4.03;;;19.20;1.00;;;;;;5057300;28;20479;-71
2021/06/02 08:19:50;;;;;;;6.70;4.40;;;19.30;1.00;;;;;;5056779;28;20463;-70
2021/06/02 08:22:16;;;;;;;4.30;3.90;;;19.40;99.90;;;;;;5056333;28;20545;-72
2021/06/02 08:24:42;;;;;;;4.70;4.20;;;19.50;99.90;;;;;;5056479;28;20455;-71
2021/06/02 08:27:12;;;;;;;5.27;4.77;;;19.60;99.90;;;;;;5056546;28;20930;-71
2021/06/02 08:29:40;;;;;;;5.60;4.60;;;19.60;99.90;;;;;;5056022;28;20635;-70
2021/06/02 08:32:07;;;;;;;5.17;4.60;;;19.70;99.90;;;;;;5055967;28;20459;-70
2021/06/02 08:34:34;;;;;;;8.17;4.47;;;19.80;99.90;;;;;;5055818;28;20486;-71
2021/06/02 08:37:00;;;;;;;6.83;4.63;;;19.90;99.90;;;;;;5056537;28;20800;-72
2021/06/02 08:39:26;;;;;;;7.23;4.90;;;20.00;99.90;;;;;;5057599;28;20459;-71
2021/06/02 08:41:53;;;;;;;5.27;4.70;;;20.10;99.90;;;;;;5058565;28;20489;-72
2021/06/02 08:44:21;;;;;;;6.37;4.60;;;20.20;99.90;;;;;;5056357;28;20456;-71
2021/06/02 08:46:49;;;;;;;6.47;4.80;;;20.30;99.90;;;;;;5056150;28;20545;-73
2021/06/02 08:49:16;;;;;;;6.83;4.90;;;20.40;99.90;;;;;;5055730;28;20566;-72
2021/06/02 08:51:42;;;;;;;5.30;4.80;;;20.40;99.90;;;;;;5055636;28;20513;-72
2021/06/02 08:54:09;;;;;;;5.00;4.60;;;20.50;99.90;;;;;;5055513;28;20458;-71
2021/06/02 08:56:40;;;;;;;6.37;4.23;;;20.50;99.90;;;;;;5055437;28;20467;-71
2021/06/02 08:59:07;;;;;;;5.23;4.70;;;20.60;99.90;;;;;;5055811;28;20439;-72
2021/06/02 09:01:33;;;;;;;5.77;4.30;;;20.80;99.90;;;;;;5055543;28;20785;-72
2021/06/02 09:04:04;;;;;;;8.33;4.57;;;20.90;99.90;;;;;;5056329;28;20470;-71
2021/06/02 09:06:32;;;;;;;7.63;4.23;;;21.00;99.90;;;;;;5055546;28;20872;-70
2021/06/02 09:09:01;;;;;;;4.70;3.90;;;21.10;99.90;;;;;;5056318;28;20459;-70
2021/06/02 09:11:27;;;;;;;4.67;3.60;;;21.20;99.90;;;;;;5055785;28;20947;-71
2021/06/02 09:13:54;;;;;;;5.90;4.53;;;21.40;81.20;;;;;;5055439;28;20455;-70
2021/06/02 09:16:23;;;;;;;4.50;4.10;;;21.40;59.60;;;;;;5055866;28;20479;-70
2021/06/02 09:18:57;;;;;;;4.43;4.00;;;21.50;42.20;;;;;;5057045;28;20489;-70
2021/06/02 09:21:26;;;;;;;5.77;4.00;;;21.60;17.50;;;;;;5056183;28;20443;-70
2021/06/02 09:23:53;;;;;;;7.90;4.13;;;21.70;11.30;;;;;;5056385;28;20513;-72
2021/06/02 09:26:24;;;;;;;9.53;5.00;;;21.70;9.50;;;;;;5055530;28;20455;-72
2021/06/02 09:28:57;;;;;;;4.80;4.40;;;21.80;6.20;;;;;;5056174;28;20467;-71
2021/06/02 09:31:30;;;;;;;4.77;4.37;;;21.90;1.20;;;;;;5055129;28;20479;-70
2021/06/02 09:34:00;;;;;;;6.13;4.83;;;21.90;2.00;;;;;;5054556;28;20487;-70
2021/06/02 09:36:33;;;;;;;9.20;4.50;;;22.00;1.00;;;;;;5054529;28;20466;-71
2021/06/02 09:39:01;;;;;;;5.77;5.13;;;22.10;1.00;;;;;;5054747;28;20542;-71
2021/06/02 09:41:29;;;;;;;6.40;4.10;;;22.10;1.00;;;;;;5054679;28;20561;-71
2021/06/02 09:43:57;;;;;;;6.83;5.60;;;22.20;1.00;;;;;;5055217;28;20458;-71
2021/06/02 09:46:23;;;;;;;6.40;4.70;;;22.30;1.00;;;;;;5054577;28;21019;-71
2021/06/02 09:49:01;;;;;;;6.47;4.30;;;22.40;1.00;;;;;;5055410;28;20520;-71
2021/06/02 09:51:34;;;;;;;5.57;5.00;;;22.40;1.00;;;;;;5054724;28;20455;-71
2021/06/02 09:54:02;;;;;;;7.07;4.70;;;22.40;1.00;;;;;;5054928;28;20458;-71
2021/06/02 09:56:36;;;;;;;5.20;4.70;;;22.50;1.00;;;;;;5054891;28;20541;-71
2021/06/02 09:59:03;;;;;;;5.27;4.77;;;22.50;1.00;;;;;;5054583;28;20499;-71
2021/06/02 10:01:50;;;;;;;5.53;5.07;;;22.60;1.00;;;;;;5055039;28;20455;-71
2021/06/02 10:04:16;;;;;;;4.90;4.50;;;22.70;1.00;;;;;;5054781;28;20459;-71
2021/06/02 10:06:44;;;;;;;5.90;5.23;;;22.70;1.00;;;;;;5054837;28;20470;-71
2021/06/02 10:09:10;;;;;;;5.30;4.90;;;22.80;1.00;;;;;;5054616;28;20463;-71
2021/06/02 10:11:37;;;;;;;6.80;4.40;;;22.90;1.00;;;;;;5056463;28;20451;-71
2021/06/02 10:14:11;;;;;;;5.50;5.00;;;23.00;1.00;;;;;;5058370;28;20451;-71
2021/06/02 10:16:40;;;;;;;5.17;4.67;;;23.10;1.00;;;;;;5058263;28;20498;-70
2021/06/02 10:19:06;;;;;;;4.70;4.30;;;23.20;1.00;;;;;;5058232;28;20958;-70
2021/06/02 10:21:44;;;;;;;4.83;4.33;;;23.30;1.00;;;;;;5058404;28;20469;-71
2021/06/02 10:24:10;;;;;;;5.83;4.37;;;23.30;1.00;;;;;;5058741;28;20447;-71
2021/06/02 10:26:38;;;;;;;4.53;4.10;;;23.40;1.00;;;;;;5058240;28;20466;-71
2021/06/02 10:29:05;;;;;;;3.77;3.47;;;23.40;1.00;;;;;;5057800;28;20549;-71
2021/06/02 10:31:32;;;;;;;4.73;4.20;;;23.50;1.00;;;;;;5058213;28;20529;-72
2021/06/02 10:33:58;;;;;;;4.67;4.17;;;23.60;1.00;;;;;;5058104;28;20482;-71
2021/06/02 10:36:25;;;;;;;6.63;4.17;;;23.70;1.00;;;;;;5057832;28;20483;-72
2021/06/02 10:38:55;;;;;;;4.77;3.90;;;23.80;1.00;;;;;;5058256;28;20475;-71
2021/06/02 10:41:26;;;;;;;3.70;3.40;;;23.90;1.00;;;;;;5058533;28;20756;-71
2021/06/02 10:43:58;;;;;;;3.40;3.10;;;24.00;1.00;;;;;;5058043;28;20552;-71
2021/06/02 10:46:27;;;;;;;4.40;3.93;;;24.10;1.00;;;;;;5057515;28;20439;-71
2021/06/02 10:48:54;;;;;;;5.83;3.90;;;24.20;1.00;;;;;;5057554;28;20474;-70
2021/06/02 10:51:26;;;;;;;4.13;3.73;;;24.30;1.00;;;;;;5057715;28;20542;-71
2021/06/02 10:54:07;;;;;;;4.00;3.70;;;24.40;1.00;;;;;;5057957;28;20459;-70
2021/06/02 10:56:33;;;;;;;4.50;3.87;;;24.40;1.00;;;;;;5057700;28;20478;-70
2021/06/02 10:59:00;;;;;;;5.63;3.97;;;24.50;1.00;;;;;;5057594;28;20819;-70
2021/06/02 11:01:30;;;;;;;4.63;4.23;;;24.60;1.00;;;;;;5057571;28;20461;-70
2021/06/02 11:04:12;;;;;;;4.13;3.83;;;24.80;1.00;;;;;;5057606;28;20781;-70
2021/06/02 11:06:40;;;;;;;4.10;3.73;;;24.90;1.00;;;;;;5057020;28;20935;-70
2021/06/02 11:09:22;;;;;;;5.37;4.43;;;25.00;1.00;;;;;;5057676;28;20455;-70
2021/06/02 11:11:48;;;;;;;3.90;3.60;;;25.10;1.00;;;;;;5057248;28;20443;-70
2021/06/02 11:14:23;;;;;;;4.83;4.23;;;25.20;1.00;;;;;;5057064;28;20534;-70
2021/06/02 11:16:56;;;;;;;5.67;3.77;;;25.30;1.00;;;;;;5057607;28;20485;-70
2021/06/02 11:19:24;;;;;;;4.50;4.10;;;25.60;1.00;;;;;;5057549;28;20444;-70
2021/06/02 11:22:02;;;;;;;7.37;4.23;;;26.40;1.00;;;;;;5057695;28;20528;-69
2021/06/02 11:24:42;;;;;;;7.73;3.90;;;27.30;1.00;;;;;;5056517;28;20906;-69
2021/06/02 11:27:27;;;;;;;3.93;3.57;;;28.40;1.00;;;;;;5057612;28;20876;-71
2021/06/02 11:30:17;;;;;;;3.83;3.53;;;29.30;1.00;;;;;;5057441;28;20459;-71
2021/06/02 11:32:51;;;;;;;4.13;3.50;;;30.20;1.00;;;;;;5056789;28;20509;-71
2021/06/02 11:35:18;;;;;;;6.30;3.80;;;30.90;1.00;;;;;;5057247;28;20451;-71
2021/06/02 11:37:44;;;;;;;5.13;3.53;;;31.60;1.00;;;;;;5057870;28;20789;-70
2021/06/02 11:40:15;;;;;;;3.70;3.40;;;32.10;1.00;;;;;;5057208;28;20455;-70
2021/06/02 11:42:43;;;;;;;7.93;3.53;;;32.30;1.00;;;;;;5057773;28;20451;-71
2021/06/02 11:45:11;;;;;;;6.20;3.70;;;32.70;1.00;;;;;;5056865;28;20467;-70
2021/06/02 11:47:42;;;;;;;3.60;3.30;;;33.20;1.00;;;;;;5057066;28;20911;-70
2021/06/02 11:50:11;;;;;;;6.60;4.03;;;33.60;1.00;;;;;;5057174;28;20586;-71
2021/06/02 11:52:38;;;;;;;4.33;3.30;;;33.60;1.00;;;;;;5057474;28;20459;-70
2021/06/02 11:55:06;;;;;;;3.40;3.10;;;33.40;1.00;;;;;;5057029;28;20477;-69
2021/06/02 11:57:37;;;;;;;4.00;3.67;;;33.10;1.00;;;;;;5056725;28;20493;-70
2021/06/02 12:00:07;;;;;;;3.50;3.20;;;33.20;1.00;;;;;;5056742;28;20473;-71
2021/06/02 12:02:33;;;;;;;3.70;3.40;;;33.60;1.00;;;;;;5056809;28;20459;-70
2021/06/02 12:05:13;;;;;;;3.23;3.03;;;33.70;1.00;;;;;;5056477;28;20485;-69
2021/06/02 12:07:44;;;;;;;3.60;3.30;;;33.40;1.00;;;;;;5056489;28;20455;-69
2021/06/02 12:10:11;;;;;;;5.23;3.37;;;32.90;1.00;;;;;;5056595;28;20439;-69
2021/06/02 12:12:40;;;;;;;4.33;3.90;;;32.40;1.00;;;;;;5056499;28;20462;-70
2021/06/02 12:15:08;;;;;;;3.80;3.50;;;31.90;1.00;;;;;;5056200;28;20454;-69
2021/06/02 12:17:35;;;;;;;3.67;3.33;;;31.50;1.00;;;;;;5056020;28;21006;-69
2021/06/02 12:20:04;;;;;;;4.30;3.40;;;31.30;1.00;;;;;;5056187;28;20524;-70
2021/06/02 12:22:31;;;;;;;4.10;3.80;;;31.50;1.00;;;;;;5056155;28;20495;-70
2021/06/02 12:25:09;;;;;;;4.23;3.47;;;31.60;1.00;;;;;;5055912;28;20818;-69
2021/06/02 12:27:41;;;;;;;3.87;3.17;;;31.40;1.00;;;;;;5056252;28;20454;-70
2021/06/02 12:30:09;;;;;;;4.80;4.40;;;31.00;1.00;;;;;;5056339;28;20455;-70
2021/06/02 12:32:47;;;;;;;3.80;3.50;;;30.40;1.00;;;;;;5055843;28;20455;-69
2021/06/02 12:35:27;;;;;;;5.03;3.60;;;29.90;1.00;;;;;;5056171;28;20955;-69
2021/06/02 12:38:03;;;;;;;4.00;3.70;;;29.40;1.00;;;;;;5056406;28;20478;-70
2021/06/02 12:40:29;;;;;;;4.63;4.17;;;28.90;1.00;;;;;;5057920;28;20996;-70
2021/06/02 12:42:57;;;;;;;5.90;3.47;;;28.50;1.00;;;;;;5056433;28;20989;-70
2021/06/02 12:45:24;;;;;;;3.53;3.10;;;28.10;1.00;;;;;;5056210;28;20470;-71
2021/06/02 12:47:50;;;;;;;3.97;3.57;;;27.80;1.00;;;;;;5055633;28;20459;-71
2021/06/02 12:50:40;;;;;;;5.20;4.03;;;27.60;1.00;;;;;;5055708;28;20455;-71
2021/06/02 12:53:07;;;;;;;7.17;4.20;;;27.30;1.00;;;;;;5056122;28;20447;-71
2021/06/02 12:55:35;;;;;;;8.67;3.63;;;27.00;1.00;;;;;;5056071;28;20463;-71
2021/06/02 12:58:04;;;;;;;9.60;4.53;;;26.70;1.00;;;;;;5056648;28;20479;-71
2021/06/02 13:00:30;;;;;;;7.23;4.40;;;26.40;1.00;;;;;;5055658;28;20787;-71
2021/06/02 13:02:58;;;;;;;3.97;3.60;;;26.30;1.00;;;;;;5055827;28;20585;-71
2021/06/02 13:05:25;;;;;;;4.97;4.17;;;26.50;1.00;;;;;;5055747;28;20799;-71
2021/06/02 13:07:52;;;;;;;5.23;3.67;;;26.90;1.00;;;;;;5055885;28;20462;-71
2021/06/02 13:10:19;;;;;;;11.33;3.80;;;27.40;1.00;;;;;;5055681;28;20455;-70
2021/06/02 13:12:53;;;;;;;3.20;3.00;;;27.90;1.00;;;;;;5055754;28;20447;-70
2021/06/02 13:15:26;;;;;;;6.97;4.13;;;28.70;1.00;;;;;;5056297;28;20455;-71
2021/06/02 13:17:52;;;;;;;3.73;3.13;;;29.60;1.00;;;;;;5055108;28;20482;-71
2021/06/02 13:20:33;;;;;;;3.47;3.17;;;30.50;1.00;;;;;;5055308;28;20466;-71
2021/06/02 13:23:31;;;;;;;3.13;2.87;;;31.70;1.00;;;;;;5055722;28;20514;-70
2021/06/02 13:26:02;;;;;;;3.60;2.77;;;32.30;1.00;;;;;;5055578;28;20435;-70
2021/06/02 13:28:29;;;;;;;3.60;3.30;;;32.40;1.00;;;;;;5055267;28;20447;-70
2021/06/02 13:31:00;;;;;;;4.50;3.00;;;32.20;1.00;;;;;;5055080;28;20455;-71
2021/06/02 13:33:39;;;;;;;3.53;3.13;;;31.90;1.00;;;;;;5054806;28;20479;-70